Time;durP1;ratioP1;P1;durP2;ratioP2;P2;SDS_P1;SDS_P2;PMS_P1;PMS_P2;Temp;Humidity;BMP_temperature;BMP_pressure;BME280_temperature;BME280_humidity;BME280_pressure;Samples;Min_cycle;Max_cycle;Signal;HPM_P1;HPM_P2
2021/10/15 00:01:28;;;;;;;3.80;2.40;;;;;;;;;;5031273;28;20021;-42
2021/10/15 00:03:53;;;;;;;3.63;2.10;;;;;;;;;;5032011;28;20661;-41
2021/10/15 00:06:19;;;;;;;2.30;2.10;;;;;;;;;;5037205;28;20498;-41
2021/10/15 00:08:44;;;;;;;3.38;2.20;;;;;;;;;;5054246;28;20032;-41
2021/10/15 00:11:09;;;;;;;2.35;1.85;;;;;;;;;;5054506;28;20052;-41
2021/10/15 00:13:35;;;;;;;3.77;2.60;;;;;;;;;;5054045;28;20025;-42
2021/10/15 00:16:00;;;;;;;4.45;2.40;;;;;;;;;;5036283;28;20116;-42
2021/10/15 00:18:25;;;;;;;3.60;2.47;;;;;;;;;;5052367;28;20025;-42
2021/10/15 00:20:51;;;;;;;3.50;2.63;;;;;;;;;;5054039;28;20021;-42
2021/10/15 00:23:16;;;;;;;3.37;2.80;;;;;;;;;;5053854;28;20028;-41
2021/10/15 00:25:42;;;;;;;3.40;2.53;;;;;;;;;;5040965;28;20040;-41
2021/10/15 00:28:07;;;;;;;3.45;2.78;;;;;;;;;;5049818;28;20025;-41
2021/10/15 00:30:32;;;;;;;2.80;2.50;;;;;;;;;;5053754;28;20096;-41
2021/10/15 00:32:58;;;;;;;2.58;2.38;;;;;;;;;;5035826;28;20094;-42
2021/10/15 00:35:23;;;;;;;4.45;2.40;;;;;;;;;;5044016;28;20030;-41
2021/10/15 00:37:49;;;;;;;2.85;2.13;;;;;;;;;;5044003;28;20037;-41
2021/10/15 00:40:17;;;;;;;2.78;1.83;;;;;;;;;;5053011;28;20083;-41
2021/10/15 00:42:43;;;;;;;3.03;2.70;;;;;;;;;;5053481;28;20021;-41
2021/10/15 00:45:08;;;;;;;2.80;2.30;;;;;;;;;;5053325;28;20039;-41
2021/10/15 00:47:34;;;;;;;3.33;2.35;;;;;;;;;;5052050;28;20114;-41
2021/10/15 00:49:59;;;;;;;3.63;2.17;;;;;;;;;;5053546;28;20035;-41
2021/10/15 00:52:24;;;;;;;3.72;2.65;;;;;;;;;;5035409;28;20033;-41
2021/10/15 00:54:50;;;;;;;2.13;1.83;;;;;;;;;;5053420;28;20071;-41
2021/10/15 00:57:17;;;;;;;2.95;2.53;;;;;;;;;;5045948;28;20025;-42
2021/10/15 00:59:42;;;;;;;3.70;2.55;;;;;;;;;;5015423;28;20031;-42
2021/10/15 01:02:07;;;;;;;2.90;2.00;;;;;;;;;;5034607;28;20025;-42
2021/10/15 01:04:33;;;;;;;3.80;2.20;;;;;;;;;;5034050;28;20112;-41
2021/10/15 01:06:59;;;;;;;2.87;2.20;;;;;;;;;;5054742;28;20043;-41
2021/10/15 01:09:25;;;;;;;3.05;2.35;;;;;;;;;;5052793;28;20048;-42
2021/10/15 01:11:50;;;;;;;4.27;2.43;;;;;;;;;;5053081;28;20021;-42
2021/10/15 01:14:16;;;;;;;2.90;2.47;;;;;;;;;;5053001;28;20025;-41
2021/10/15 01:16:44;;;;;;;3.28;2.40;;;;;;;;;;5038356;28;20028;-41
2021/10/15 01:19:09;;;;;;;2.53;2.00;;;;;;;;;;5052834;28;20161;-41
2021/10/15 01:21:35;;;;;;;2.93;2.40;;;;;;;;;;5038892;28;20467;-41
2021/10/15 01:24:00;;;;;;;3.13;2.05;;;;;;;;;;5052311;28;20043;-41
2021/10/15 01:26:26;;;;;;;2.87;2.47;;;;;;;;;;5052246;28;20406;-41
2021/10/15 01:28:53;;;;;;;2.90;2.03;;;;;;;;;;5052625;28;20036;-40
2021/10/15 01:31:18;;;;;;;;;;;;;;;;;;5053170;28;20029;-41
2021/10/15 01:33:43;;;;;;;2.77;2.17;;;;;;;;;;5032979;28;20382;-40
2021/10/15 01:36:08;;;;;;;2.85;2.13;;;;;;;;;;5052531;28;20017;-40
2021/10/15 01:38:34;;;;;;;3.10;2.17;;;;;;;;;;5016137;28;20036;-41
2021/10/15 01:40:59;;;;;;;3.73;2.13;;;;;;;;;;5042648;28;20033;-41
2021/10/15 01:43:26;;;;;;;2.90;2.22;;;;;;;;;;5052360;28;20071;-41
2021/10/15 01:45:52;;;;;;;3.47;2.20;;;;;;;;;;5052371;28;20024;-41
2021/10/15 01:48:18;;;;;;;4.10;2.38;;;;;;;;;;5043337;28;20127;-41
2021/10/15 01:50:43;;;;;;;3.05;2.35;;;;;;;;;;5032321;28;20076;-40
2021/10/15 01:53:09;;;;;;;2.72;2.10;;;;;;;;;;5032327;28;20032;-40
2021/10/15 01:55:35;;;;;;;2.35;2.15;;;;;;;;;;5052344;28;20017;-40
2021/10/15 01:58:00;;;;;;;3.17;2.87;;;;;;;;;;5051754;28;20499;-41
2021/10/15 02:00:25;;;;;;;4.20;2.37;;;;;;;;;;5045069;28;20057;-41
2021/10/15 02:02:51;;;;;;;3.05;2.42;;;;;;;;;;5033331;28;20057;-41
2021/10/15 02:05:17;;;;;;;2.90;1.92;;;;;;;;;;5032068;28;20032;-41
2021/10/15 02:07:43;;;;;;;3.10;2.13;;;;;;;;;;5042333;28;20454;-41
2021/10/15 02:10:09;;;;;;;4.95;2.33;;;;;;;;;;5051790;28;20475;-41
2021/10/15 02:12:34;;;;;;;2.50;2.30;;;;;;;;;;5051025;28;20025;-40
2021/10/15 02:14:59;;;;;;;2.60;2.40;;;;;;;;;;5032104;28;20417;-40
2021/10/15 02:17:25;;;;;;;2.63;2.20;;;;;;;;;;5033392;28;20052;-41
2021/10/15 02:19:50;;;;;;;3.00;2.53;;;;;;;;;;5052739;28;20028;-40
2021/10/15 02:22:15;;;;;;;2.78;2.10;;;;;;;;;;5045850;28;20033;-40
2021/10/15 02:24:41;;;;;;;3.80;2.50;;;;;;;;;;5032860;28;20033;-41
2021/10/15 02:27:06;;;;;;;3.25;2.53;;;;;;;;;;5025810;28;20032;-40
2021/10/15 02:29:31;;;;;;;4.03;2.38;;;;;;;;;;5051032;28;20025;-40
2021/10/15 02:31:57;;;;;;;2.88;2.15;;;;;;;;;;5051636;28;20043;-41
2021/10/15 02:34:22;;;;;;;4.27;2.87;;;;;;;;;;5049961;28;20610;-41
2021/10/15 02:36:48;;;;;;;3.13;2.37;;;;;;;;;;5040776;28;20079;-40
2021/10/15 02:39:13;;;;;;;4.25;2.50;;;;;;;;;;5051080;28;20398;-40
2021/10/15 02:41:39;;;;;;;4.90;2.67;;;;;;;;;;5051479;28;20092;-40
2021/10/15 02:44:08;;;;;;;3.08;2.50;;;;;;;;;;5051555;28;20133;-40
2021/10/15 02:46:34;;;;;;;3.33;2.72;;;;;;;;;;5046937;28;20025;-42
2021/10/15 02:48:59;;;;;;;4.32;2.63;;;;;;;;;;5051387;28;20397;-40
2021/10/15 02:51:25;;;;;;;3.35;2.50;;;;;;;;;;5051114;28;20032;-40
2021/10/15 02:53:50;;;;;;;2.97;2.67;;;;;;;;;;5051571;28;20032;-39
2021/10/15 02:56:15;;;;;;;3.10;2.58;;;;;;;;;;5042409;28;20025;-40
2021/10/15 02:58:41;;;;;;;2.30;2.10;;;;;;;;;;5031589;28;20026;-40
2021/10/15 03:01:06;;;;;;;3.23;2.60;;;;;;;;;;5031064;28;20471;-40
2021/10/15 03:03:31;;;;;;;3.35;2.20;;;;;;;;;;5051051;28;20033;-40
2021/10/15 03:05:57;;;;;;;3.27;2.70;;;;;;;;;;5050815;28;20102;-40
2021/10/15 03:08:22;;;;;;;3.28;2.33;;;;;;;;;;5051276;28;20029;-40
2021/10/15 03:10:47;;;;;;;2.80;2.50;;;;;;;;;;5050861;28;20052;-40
2021/10/15 03:13:13;;;;;;;3.72;2.50;;;;;;;;;;5051162;28;20028;-40
2021/10/15 03:15:38;;;;;;;3.93;2.57;;;;;;;;;;5016249;28;20048;-40
2021/10/15 03:18:03;;;;;;;3.42;2.45;;;;;;;;;;5031267;28;20028;-40
2021/10/15 03:20:29;;;;;;;4.23;2.37;;;;;;;;;;5031007;28;20025;-40
2021/10/15 03:22:54;;;;;;;3.08;2.75;;;;;;;;;;5013503;28;20074;-41
2021/10/15 03:25:19;;;;;;;3.72;2.45;;;;;;;;;;5032185;28;20523;-40
2021/10/15 03:27:45;;;;;;;4.97;2.53;;;;;;;;;;5050989;28;20051;-40
2021/10/15 03:30:10;;;;;;;3.30;2.20;;;;;;;;;;5050696;28;20032;-40
2021/10/15 03:32:35;;;;;;;3.67;3.00;;;;;;;;;;5031858;28;20029;-39
2021/10/15 03:35:01;;;;;;;3.28;2.40;;;;;;;;;;5031774;28;20108;-40
2021/10/15 03:37:27;;;;;;;2.78;2.10;;;;;;;;;;5037714;28;20052;-40
2021/10/15 03:39:52;;;;;;;3.50;2.30;;;;;;;;;;5033426;28;20025;-40
2021/10/15 03:42:18;;;;;;;2.90;2.60;;;;;;;;;;5054367;28;20108;-41
2021/10/15 03:44:43;;;;;;;4.38;2.78;;;;;;;;;;5054823;28;20083;-40
2021/10/15 03:47:08;;;;;;;3.60;2.47;;;;;;;;;;5041216;28;20044;-40
2021/10/15 03:49:34;;;;;;;3.95;2.50;;;;;;;;;;5054535;28;20031;-40
2021/10/15 03:51:59;;;;;;;2.43;2.23;;;;;;;;;;5054492;28;20025;-40
2021/10/15 03:54:25;;;;;;;2.92;2.60;;;;;;;;;;5054465;28;20043;-40
2021/10/15 03:56:50;;;;;;;4.40;2.53;;;;;;;;;;5052874;28;20040;-42
2021/10/15 03:59:15;;;;;;;3.57;2.70;;;;;;;;;;5049218;28;20083;-40
2021/10/15 04:01:41;;;;;;;4.38;2.75;;;;;;;;;;5034404;28;20025;-41
2021/10/15 04:04:06;;;;;;;3.22;2.50;;;;;;;;;;5034456;28;20029;-41
2021/10/15 04:06:31;;;;;;;3.78;2.80;;;;;;;;;;5035301;28;20360;-41
2021/10/15 04:08:57;;;;;;;4.65;2.70;;;;;;;;;;5034023;28;20480;-41
2021/10/15 04:11:22;;;;;;;4.70;2.33;;;;;;;;;;5034111;28;20592;-40
2021/10/15 04:13:47;;;;;;;3.53;2.42;;;;;;;;;;5045658;28;20039;-41
2021/10/15 04:16:13;;;;;;;3.55;2.90;;;;;;;;;;5052496;28;20021;-41
2021/10/15 04:18:38;;;;;;;2.30;2.10;;;;;;;;;;5054139;28;20055;-41
2021/10/15 04:21:04;;;;;;;4.77;2.90;;;;;;;;;;5035939;28;20024;-41
2021/10/15 04:23:29;;;;;;;3.58;2.53;;;;;;;;;;5053844;28;20035;-40
2021/10/15 04:25:54;;;;;;;3.13;2.60;;;;;;;;;;5049468;28;20431;-40
2021/10/15 04:28:20;;;;;;;4.20;2.80;;;;;;;;;;5037539;28;20021;-41
2021/10/15 04:30:46;;;;;;;3.53;2.60;;;;;;;;;;5053930;28;20036;-40
2021/10/15 04:33:11;;;;;;;4.78;2.67;;;;;;;;;;5053786;28;20025;-41
2021/10/15 04:35:37;;;;;;;4.32;2.75;;;;;;;;;;5052057;28;20079;-40
2021/10/15 04:38:02;;;;;;;3.13;2.55;;;;;;;;;;5053685;28;20028;-40
2021/10/15 04:40:27;;;;;;;2.63;2.20;;;;;;;;;;5053633;28;20025;-40
2021/10/15 04:42:53;;;;;;;3.35;2.65;;;;;;;;;;5053655;28;20017;-41
2021/10/15 04:45:18;;;;;;;5.55;2.92;;;;;;;;;;5053657;28;20103;-41
2021/10/15 04:47:43;;;;;;;3.33;2.50;;;;;;;;;;5051653;28;20064;-41
2021/10/15 04:50:09;;;;;;;5.53;2.40;;;;;;;;;;5036725;28;20040;-41
2021/10/15 04:52:34;;;;;;;3.28;2.38;;;;;;;;;;5055710;28;20029;-41
2021/10/15 04:55:00;;;;;;;3.47;2.90;;;;;;;;;;5053736;28;20032;-40
2021/10/15 04:57:25;;;;;;;2.90;2.47;;;;;;;;;;5033206;28;20029;-41
2021/10/15 04:59:51;;;;;;;3.10;2.80;;;;;;;;;;5035112;28;20033;-41
2021/10/15 05:02:16;;;;;;;3.60;2.50;;;;;;;;;;5043535;28;20083;-40
2021/10/15 05:04:41;;;;;;;2.80;2.60;;;;;;;;;;5033094;28;20099;-40
2021/10/15 05:07:07;;;;;;;3.47;2.20;;;;;;;;;;5044959;28;20029;-42
2021/10/15 05:09:33;;;;;;;4.00;2.70;;;;;;;;;;5080220;22;20051;-36
2021/10/15 05:11:59;;;;;;;3.15;2.40;;;;;;;;;;5113018;28;20035;-34
2021/10/15 05:14:25;;;;;;;3.35;2.47;;;;;;;;;;5077958;28;20042;-34
2021/10/15 05:16:52;;;;;;;2.70;2.50;;;;;;;;;;5112968;28;20442;-34
2021/10/15 05:19:18;;;;;;;3.08;2.47;;;;;;;;;;5110186;28;20045;-35
2021/10/15 05:21:43;;;;;;;3.80;2.65;;;;;;;;;;5092908;28;20027;-34
2021/10/15 05:24:08;;;;;;;5.10;2.40;;;;;;;;;;5092340;28;20496;-34
2021/10/15 05:26:34;;;;;;;2.90;2.38;;;;;;;;;;5092438;28;20039;-34
2021/10/15 05:28:59;;;;;;;4.47;2.50;;;;;;;;;;5092469;28;20024;-34
2021/10/15 05:31:24;;;;;;;2.80;2.30;;;;;;;;;;5092605;28;20028;-35
2021/10/15 05:33:50;;;;;;;2.33;2.10;;;;;;;;;;5092678;28;20024;-34
2021/10/15 05:36:16;;;;;;;4.78;2.50;;;;;;;;;;5092388;28;20012;-33
2021/10/15 05:38:41;;;;;;;4.00;2.28;;;;;;;;;;5074820;28;20020;-33
2021/10/15 05:41:06;;;;;;;3.30;2.42;;;;;;;;;;5093432;28;20052;-33
2021/10/15 05:43:32;;;;;;;3.08;1.90;;;;;;;;;;5074761;28;20024;-33
2021/10/15 05:45:57;;;;;;;3.85;2.63;;;;;;;;;;5074510;28;20172;-35
2021/10/15 05:48:24;;;;;;;3.78;2.35;;;;;;;;;;5087415;28;20367;-35
2021/10/15 05:50:49;;;;;;;3.40;2.55;;;;;;;;;;5071946;28;20020;-35
2021/10/15 05:53:18;;;;;;;3.43;2.43;;;;;;;;;;5072035;28;20027;-35
2021/10/15 06:01:04;;;;;;;3.95;2.40;;;;;;;;;;5090785;28;20074;-35
2021/10/15 06:03:29;;;;;;;2.95;2.10;;;;;;;;;;5090381;28;20028;-34
2021/10/15 06:16:18;;;;;;;4.43;2.60;;;;;;;;;;5091784;28;20393;-35
2021/10/15 06:18:52;;;;;;;4.70;2.55;;;;;;;;;;5068910;28;20035;-35
2021/10/15 06:21:17;;;;;;;3.63;2.50;;;;;;;;;;5081616;28;20454;-35
2021/10/15 06:23:42;;;;;;;4.15;2.58;;;;;;;;;;5076917;28;20103;-35
2021/10/15 06:26:08;;;;;;;3.10;2.40;;;;;;;;;;5072489;28;20470;-35
2021/10/15 06:28:33;;;;;;;4.90;2.30;;;;;;;;;;5091362;28;20408;-35
2021/10/15 06:30:58;;;;;;;4.05;2.63;;;;;;;;;;5072379;28;20055;-35
2021/10/15 06:33:24;;;;;;;6.03;2.87;;;;;;;;;;5083075;28;20032;-35
2021/10/15 06:35:49;;;;;;;8.48;3.13;;;;;;;;;;5057939;28;20482;-35
2021/10/15 06:38:15;;;;;;;9.77;3.83;;;;;;;;;;5075382;28;20061;-35
2021/10/15 06:40:40;;;;;;;6.97;3.33;;;;;;;;;;5091635;28;20098;-35
2021/10/15 06:43:07;;;;;;;12.57;3.58;;;;;;;;;;5089275;28;20024;-35
2021/10/15 06:45:33;;;;;;;6.07;3.10;;;;;;;;;;5090935;28;20024;-35
2021/10/15 06:47:58;;;;;;;6.43;2.97;;;;;;;;;;5091467;28;20417;-35
2021/10/15 06:50:23;;;;;;;7.28;3.33;;;;;;;;;;5062757;28;20038;-35
2021/10/15 06:52:49;;;;;;;9.00;3.55;;;;;;;;;;5079488;28;20024;-33
2021/10/15 06:55:18;;;;;;;5.30;2.88;;;;;;;;;;5073009;28;20103;-33
2021/10/15 06:57:44;;;;;;;5.82;2.90;;;;;;;;;;5059747;28;20426;-33
2021/10/15 07:00:10;;;;;;;7.63;2.90;;;;;;;;;;5070878;28;20040;-35
2021/10/15 07:02:36;;;;;;;5.45;3.50;;;;;;;;;;5079123;28;20024;-32
2021/10/15 07:05:01;;;;;;;5.32;3.05;;;;;;;;;;5090113;28;20035;-33
2021/10/15 07:07:26;;;;;;;6.27;3.13;;;;;;;;;;5072874;28;20119;-33
2021/10/15 07:09:52;;;;;;;8.27;3.00;;;;;;;;;;5071929;28;20143;-35
2021/10/15 07:12:17;;;;;;;9.65;2.95;;;;;;;;;;5072415;28;20032;-35
2021/10/15 07:14:42;;;;;;;11.10;3.17;;;;;;;;;;5093131;28;20099;-35
2021/10/15 07:17:08;;;;;;;4.43;3.03;;;;;;;;;;5095144;28;20031;-35
2021/10/15 07:19:33;;;;;;;9.50;3.23;;;;;;;;;;5090403;28;20020;-35
2021/10/15 07:21:58;;;;;;;7.47;3.42;;;;;;;;;;5094913;28;20020;-35
2021/10/15 07:24:24;;;;;;;7.20;3.30;;;;;;;;;;5094103;28;20031;-35
2021/10/15 07:26:49;;;;;;;10.32;3.28;;;;;;;;;;5094930;28;20044;-35
2021/10/15 07:29:14;;;;;;;5.95;3.10;;;;;;;;;;5094858;28;20020;-35
2021/10/15 07:31:40;;;;;;;5.20;3.22;;;;;;;;;;5090663;28;20024;-35
2021/10/15 07:34:05;;;;;;;5.47;3.10;;;;;;;;;;5080379;28;20035;-35
2021/10/15 07:36:31;;;;;;;9.82;3.13;;;;;;;;;;5080988;28;20027;-36
2021/10/15 07:38:56;;;;;;;7.15;3.75;;;;;;;;;;5087558;28;20031;-35
2021/10/15 07:41:22;;;;;;;6.00;3.00;;;;;;;;;;5091371;28;20051;-35
2021/10/15 07:43:50;;;;;;;9.70;3.60;;;;;;;;;;5085931;28;20074;-35
2021/10/15 07:46:15;;;;;;;9.45;3.55;;;;;;;;;;5071730;28;20031;-35
2021/10/15 07:48:41;;;;;;;8.57;3.53;;;;;;;;;;5089148;28;20024;-35
2021/10/15 07:51:07;;;;;;;7.30;3.53;;;;;;;;;;5093744;28;20028;-35
2021/10/15 07:53:32;;;;;;;7.75;3.60;;;;;;;;;;5093433;28;20032;-35
2021/10/15 07:55:58;;;;;;;4.57;3.10;;;;;;;;;;5081793;28;20032;-35
2021/10/15 07:58:23;;;;;;;4.07;2.97;;;;;;;;;;5063838;28;20449;-35
2021/10/15 08:00:48;;;;;;;7.22;3.35;;;;;;;;;;5073770;28;20025;-34
2021/10/15 08:03:14;;;;;;;7.53;3.40;;;;;;;;;;5073743;28;20032;-34
2021/10/15 08:05:39;;;;;;;9.00;3.35;;;;;;;;;;5067153;28;20115;-36
2021/10/15 08:08:05;;;;;;;6.95;3.35;;;;;;;;;;5064080;28;20016;-34
2021/10/15 08:10:30;;;;;;;10.63;3.30;;;;;;;;;;5073713;28;20494;-34
2021/10/15 08:12:56;;;;;;;6.55;3.38;;;;;;;;;;5055632;28;20035;-35
2021/10/15 08:15:21;;;;;;;4.80;3.03;;;;;;;;;;5053880;28;20120;-35
2021/10/15 08:17:47;;;;;;;6.78;3.63;;;;;;;;;;5039712;28;20016;-35
2021/10/15 08:20:13;;;;;;;6.30;3.20;;;;;;;;;;5055607;28;20028;-35
2021/10/15 08:22:39;;;;;;;7.50;3.42;;;;;;;;;;5073142;28;20020;-35
2021/10/15 08:25:05;;;;;;;5.00;3.17;;;;;;;;;;5072794;28;20119;-35
2021/10/15 08:27:30;;;;;;;5.65;3.00;;;;;;;;;;5056422;28;20036;-35
2021/10/15 08:29:56;;;;;;;6.05;3.08;;;;;;;;;;5073288;28;20032;-35
2021/10/15 08:32:21;;;;;;;5.68;3.50;;;;;;;;;;5055459;28;20094;-35
2021/10/15 08:34:46;;;;;;;4.25;3.03;;;;;;;;;;5073007;28;20024;-35
2021/10/15 08:37:12;;;;;;;6.28;3.25;;;;;;;;;;5055617;28;20107;-35
2021/10/15 08:39:37;;;;;;;4.13;2.77;;;;;;;;;;5073401;28;20067;-34
2021/10/15 08:42:03;;;;;;;4.70;3.17;;;;;;;;;;5073011;28;20027;-34
2021/10/15 08:44:35;;;;;;;5.63;3.40;;;;;;;;;;5073099;28;20167;-34
2021/10/15 08:47:00;;;;;;;7.03;3.35;;;;;;;;;;5037941;28;20051;-34
2021/10/15 08:49:26;;;;;;;5.30;2.80;;;;;;;;;;5073206;28;20658;-34
2021/10/15 08:51:52;;;;;;;7.27;3.63;;;;;;;;;;5072658;28;20401;-32
2021/10/15 08:54:17;;;;;;;4.18;2.70;;;;;;;;;;5072914;28;20074;-34
2021/10/15 08:56:43;;;;;;;3.10;2.77;;;;;;;;;;5069805;28;20031;-35
2021/10/15 08:59:09;;;;;;;6.72;3.13;;;;;;;;;;5088110;28;20473;-34
2021/10/15 09:01:45;;;;;;;6.68;2.88;;;;;;;;;;5092945;28;20048;-35
2021/10/15 09:04:15;;;;;;;5.53;3.00;;;;;;;;;;5092952;28;20035;-35
2021/10/15 09:06:41;;;;;;;4.75;2.78;;;;;;;;;;5086332;28;20111;-34
2021/10/15 09:09:07;;;;;;;8.33;3.47;;;;;;;;;;5064738;28;20119;-35
2021/10/15 09:11:32;;;;;;;7.27;3.40;;;;;;;;;;5072712;28;20036;-35
2021/10/15 09:14:09;;;;;;;5.57;3.17;;;;;;;;;;5092778;28;20106;-34
2021/10/15 09:16:53;;;;;;;5.53;3.10;;;;;;;;;;5084008;28;20076;-35
2021/10/15 09:19:22;;;;;;;5.70;3.38;;;;;;;;;;5087883;28;20020;-34
2021/10/15 09:22:03;;;;;;;3.28;2.80;;;;;;;;;;5092560;28;20020;-35
2021/10/15 09:24:36;;;;;;;5.13;2.72;;;;;;;;;;5092497;28;20028;-35
2021/10/15 09:27:11;;;;;;;7.72;3.20;;;;;;;;;;5080352;28;20028;-35
2021/10/15 09:29:47;;;;;;;5.45;2.85;;;;;;;;;;5092315;28;20023;-35
2021/10/15 09:32:12;;;;;;;4.32;2.97;;;;;;;;;;5092278;28;20028;-34
2021/10/15 09:34:38;;;;;;;3.43;3.00;;;;;;;;;;5092279;28;20416;-34
2021/10/15 09:37:09;;;;;;;6.43;2.80;;;;;;;;;;5080219;28;20052;-35
2021/10/15 09:39:35;;;;;;;5.60;3.05;;;;;;;;;;5069124;28;20073;-35
2021/10/15 09:42:01;;;;;;;8.38;3.25;;;;;;;;;;5092258;28;20141;-35
2021/10/15 09:44:33;;;;;;;5.30;2.60;;;;;;;;;;5092071;28;20077;-34
2021/10/15 09:47:15;;;;;;;4.32;2.83;;;;;;;;;;5084459;28;20063;-36
2021/10/15 09:49:48;;;;;;;4.03;2.67;;;;;;;;;;5087054;28;20028;-34
2021/10/15 09:52:32;;;;;;;5.75;3.03;;;;;;;;;;5091675;28;20020;-35
2021/10/15 09:55:00;;;;;;;3.85;2.40;;;;;;;;;;5091236;28;20511;-35
2021/10/15 09:57:35;;;;;;;3.78;2.80;;;;;;;;;;5078821;28;20033;-34
2021/10/15 10:00:01;;;;;;;5.87;3.07;;;;;;;;;;5069466;28;20100;-32
2021/10/15 10:02:27;;;;;;;3.20;2.73;;;;;;;;;;5050257;28;20107;-35
2021/10/15 10:04:55;;;;;;;3.70;2.90;;;;;;;;;;5071171;28;20094;-35
2021/10/15 10:07:20;;;;;;;3.72;2.88;;;;;;;;;;5071651;28;20029;-35
2021/10/15 10:09:46;;;;;;;2.90;2.43;;;;;;;;;;5071260;28;20048;-35
2021/10/15 10:12:11;;;;;;;3.70;3.00;;;;;;;;;;5053667;28;20032;-36
2021/10/15 10:14:37;;;;;;;4.27;2.80;;;;;;;;;;5072087;28;20028;-34
2021/10/15 10:17:03;;;;;;;2.85;2.58;;;;;;;;;;5071100;28;20025;-35
2021/10/15 10:19:29;;;;;;;4.10;2.78;;;;;;;;;;5071085;28;20351;-35
2021/10/15 10:21:55;;;;;;;4.80;2.67;;;;;;;;;;5055212;28;20125;-35
2021/10/15 10:24:25;;;;;;;4.40;2.40;;;;;;;;;;5070864;28;20154;-35
2021/10/15 10:26:52;;;;;;;6.07;2.60;;;;;;;;;;5071558;28;20062;-35
2021/10/15 10:29:18;;;;;;;4.07;3.05;;;;;;;;;;5071666;28;20035;-35
2021/10/15 10:31:44;;;;;;;6.87;3.37;;;;;;;;;;5053131;28;20017;-36
2021/10/15 10:34:11;;;;;;;3.17;2.60;;;;;;;;;;5071219;28;20055;-35
2021/10/15 10:36:37;;;;;;;;;;;;;;;;;;5071542;28;20020;-35
2021/10/15 10:39:29;;;;;;;2.65;2.42;;;;;;;;;;5070516;28;19915;-35
2021/10/15 10:42:00;;;;;;;3.60;2.58;;;;;;;;;;5048914;28;20463;-35
2021/10/15 10:44:25;;;;;;;4.10;2.60;;;;;;;;;;5070216;28;20106;-35
2021/10/15 10:47:17;;;;;;;3.97;3.20;;;;;;;;;;5075234;28;20051;-35
2021/10/15 10:49:43;;;;;;;3.03;2.30;;;;;;;;;;5066258;28;20042;-35
2021/10/15 10:52:08;;;;;;;5.13;2.88;;;;;;;;;;5058116;28;20021;-35
2021/10/15 10:54:34;;;;;;;5.20;2.80;;;;;;;;;;5071720;28;20039;-39
2021/10/15 10:57:11;;;;;;;5.27;2.97;;;;;;;;;;5090931;28;20482;-36
2021/10/15 10:59:36;;;;;;;5.80;3.03;;;;;;;;;;5070297;28;20037;-36
2021/10/15 11:02:11;;;;;;;6.27;2.80;;;;;;;;;;5050384;28;20089;-37
2021/10/15 11:04:37;;;;;;;7.20;3.08;;;;;;;;;;5090241;28;20507;-36
2021/10/15 11:07:04;;;;;;;4.28;2.60;;;;;;;;;;5091684;28;20067;-36
2021/10/15 11:09:30;;;;;;;3.90;3.20;;;;;;;;;;5089581;28;20485;-36
2021/10/15 11:11:55;;;;;;;5.70;2.77;;;;;;;;;;5090545;28;20024;-36
2021/10/15 11:14:22;;;;;;;7.47;2.80;;;;;;;;;;5091021;28;20020;-36
2021/10/15 11:16:47;;;;;;;5.30;3.05;;;;;;;;;;5092139;28;20510;-36
2021/10/15 11:19:17;;;;;;;7.80;2.67;;;;;;;;;;5090782;28;20081;-36
2021/10/15 11:21:42;;;;;;;3.88;2.90;;;;;;;;;;5091218;28;20028;-36
2021/10/15 11:24:14;;;;;;;4.70;2.50;;;;;;;;;;5072795;28;20020;-36
2021/10/15 11:26:40;;;;;;;5.82;3.58;;;;;;;;;;5090851;28;20023;-36
2021/10/15 11:29:08;;;;;;;10.20;3.10;;;;;;;;;;5090438;28;20493;-36
2021/10/15 11:31:34;;;;;;;5.10;3.03;;;;;;;;;;5090013;28;20032;-36
2021/10/15 11:34:10;;;;;;;7.33;2.90;;;;;;;;;;5090879;28;20077;-36
2021/10/15 11:36:35;;;;;;;3.20;2.90;;;;;;;;;;5090856;28;20562;-36
2021/10/15 11:39:01;;;;;;;6.23;3.50;;;;;;;;;;5090126;28;20039;-36
2021/10/15 11:41:26;;;;;;;5.50;3.53;;;;;;;;;;5090944;28;20035;-36
2021/10/15 11:43:51;;;;;;;5.20;3.17;;;;;;;;;;5089617;28;20031;-36
2021/10/15 11:46:20;;;;;;;4.90;3.00;;;;;;;;;;5090060;28;20424;-36
2021/10/15 11:48:50;;;;;;;5.47;3.20;;;;;;;;;;5090047;28;20024;-36
2021/10/15 11:51:24;;;;;;;7.63;3.25;;;;;;;;;;5090489;28;20485;-36
2021/10/15 11:53:51;;;;;;;6.93;3.17;;;;;;;;;;5090050;28;20485;-36
2021/10/15 11:56:18;;;;;;;4.65;3.20;;;;;;;;;;5071668;28;20047;-36
2021/10/15 11:58:47;;;;;;;7.13;3.20;;;;;;;;;;5090777;28;20494;-36
2021/10/15 12:01:29;;;;;;;9.75;3.13;;;;;;;;;;5093288;28;20416;-36
2021/10/15 12:03:55;;;;;;;6.60;3.42;;;;;;;;;;5094304;28;20035;-36
2021/10/15 12:06:23;;;;;;;7.10;3.03;;;;;;;;;;5094386;28;20070;-36
2021/10/15 12:08:49;;;;;;;4.78;3.20;;;;;;;;;;5093915;28;20027;-36
2021/10/15 12:11:39;;;;;;;5.73;3.23;;;;;;;;;;5093939;28;20048;-36
2021/10/15 12:14:06;;;;;;;5.35;3.53;;;;;;;;;;5063440;28;20047;-36
2021/10/15 12:16:35;;;;;;;6.07;3.42;;;;;;;;;;5093811;28;20043;-36
2021/10/15 12:19:06;;;;;;;4.43;3.30;;;;;;;;;;5074880;28;20444;-36
2021/10/15 12:21:37;;;;;;;5.53;3.45;;;;;;;;;;5093139;28;20065;-36
2021/10/15 12:24:03;;;;;;;5.28;3.25;;;;;;;;;;5091893;28;20294;-36
2021/10/15 12:26:29;;;;;;;3.95;3.13;;;;;;;;;;5087882;28;20028;-36
2021/10/15 12:28:55;;;;;;;4.38;3.30;;;;;;;;;;5071317;28;20054;-36
2021/10/15 12:31:23;;;;;;;4.23;3.20;;;;;;;;;;5092387;28;20448;-36
2021/10/15 12:34:01;;;;;;;7.57;3.28;;;;;;;;;;5092743;28;20020;-36
2021/10/15 12:36:26;;;;;;;5.03;2.97;;;;;;;;;;5076105;28;20081;-36
2021/10/15 12:38:51;;;;;;;6.50;3.50;;;;;;;;;;5073345;28;20025;-36
2021/10/15 12:41:25;;;;;;;5.83;3.13;;;;;;;;;;5075545;28;20024;-35
2021/10/15 12:43:52;;;;;;;5.05;3.50;;;;;;;;;;5081420;28;20127;-36
2021/10/15 12:46:18;;;;;;;3.75;3.15;;;;;;;;;;5062652;28;20032;-36
2021/10/15 12:48:43;;;;;;;3.65;3.15;;;;;;;;;;5088625;28;20123;-36
2021/10/15 12:51:10;;;;;;;4.97;3.57;;;;;;;;;;5083465;28;20103;-36
2021/10/15 12:53:41;;;;;;;3.88;3.20;;;;;;;;;;5094013;28;20485;-36
2021/10/15 12:56:20;;;;;;;3.80;3.03;;;;;;;;;;5076395;28;20111;-36
2021/10/15 12:58:48;;;;;;;4.45;3.10;;;;;;;;;;5088999;28;20103;-36
2021/10/15 13:01:18;;;;;;;4.53;3.20;;;;;;;;;;5089645;28;20103;-36
2021/10/15 13:03:44;;;;;;;4.45;3.20;;;;;;;;;;5092237;28;20052;-36
2021/10/15 13:06:09;;;;;;;3.47;2.73;;;;;;;;;;5092712;28;20083;-37
2021/10/15 13:08:34;;;;;;;4.17;2.80;;;;;;;;;;5091613;28;20059;-36
2021/10/15 13:11:01;;;;;;;6.33;3.00;;;;;;;;;;5091884;28;20513;-36
2021/10/15 13:13:26;;;;;;;5.57;3.40;;;;;;;;;;5090900;28;20059;-36
2021/10/15 13:15:51;;;;;;;6.07;3.37;;;;;;;;;;5092128;28;20478;-37
2021/10/15 13:18:17;;;;;;;4.43;3.07;;;;;;;;;;5089509;28;20037;-36
2021/10/15 13:20:44;;;;;;;4.13;3.03;;;;;;;;;;5072692;28;20084;-36
2021/10/15 13:23:10;;;;;;;5.07;2.92;;;;;;;;;;5077481;28;20020;-36
2021/10/15 13:25:35;;;;;;;4.03;3.03;;;;;;;;;;5078423;28;20110;-36
2021/10/15 13:28:01;;;;;;;4.50;2.83;;;;;;;;;;5076502;28;20043;-36
2021/10/15 13:30:26;;;;;;;7.43;3.23;;;;;;;;;;5075089;28;20051;-36
2021/10/15 13:32:52;;;;;;;6.17;3.23;;;;;;;;;;5091669;28;20497;-36
2021/10/15 13:35:17;;;;;;;4.87;3.20;;;;;;;;;;5080371;28;20113;-36
2021/10/15 13:37:47;;;;;;;6.30;3.30;;;;;;;;;;5075156;28;20482;-36
2021/10/15 13:40:16;;;;;;;4.43;2.88;;;;;;;;;;5071724;28;20047;-36
2021/10/15 13:43:02;;;;;;;6.10;3.42;;;;;;;;;;5090431;28;20097;-36
2021/10/15 13:50:37;;;;;;;8.27;3.25;;;;;;;;;;5091950;28;20031;-36
2021/10/15 13:53:03;;;;;;;6.73;3.43;;;;;;;;;;5082695;28;20025;-36
2021/10/15 13:55:29;;;;;;;6.65;3.13;;;;;;;;;;5074947;28;20019;-36
2021/10/15 13:57:56;;;;;;;4.63;3.43;;;;;;;;;;5086960;28;20043;-36
2021/10/15 14:00:28;;;;;;;6.53;3.20;;;;;;;;;;5086348;28;20051;-36
2021/10/15 14:02:55;;;;;;;6.53;3.22;;;;;;;;;;5090154;28;20436;-36
2021/10/15 14:05:20;;;;;;;6.18;2.75;;;;;;;;;;5085090;28;20285;-36
2021/10/15 14:07:46;;;;;;;5.97;3.20;;;;;;;;;;5071718;28;20035;-37
2021/10/15 14:10:12;;;;;;;5.63;3.10;;;;;;;;;;5077547;28;20142;-36
2021/10/15 14:12:37;;;;;;;5.80;3.30;;;;;;;;;;5057754;28;20032;-36
2021/10/15 14:15:03;;;;;;;3.97;3.53;;;;;;;;;;5075599;28;20480;-36
2021/10/15 14:17:28;;;;;;;5.97;3.70;;;;;;;;;;5087311;28;20111;-36
2021/10/15 14:19:54;;;;;;;7.03;3.40;;;;;;;;;;5077218;28;20277;-37
2021/10/15 14:22:20;;;;;;;3.43;3.07;;;;;;;;;;5058500;28;20039;-36
2021/10/15 14:24:46;;;;;;;8.13;3.97;;;;;;;;;;5059215;28;20024;-36
2021/10/15 14:27:11;;;;;;;9.18;3.67;;;;;;;;;;5075536;28;20544;-36
2021/10/15 14:29:37;;;;;;;6.00;3.70;;;;;;;;;;5060456;28;20108;-37
2021/10/15 14:32:03;;;;;;;7.47;3.57;;;;;;;;;;5078324;28;20512;-37
2021/10/15 14:34:28;;;;;;;5.77;3.27;;;;;;;;;;5088359;28;20012;-36
2021/10/15 14:36:53;;;;;;;10.60;3.63;;;;;;;;;;5088862;28;20066;-36
2021/10/15 14:39:19;;;;;;;6.93;3.43;;;;;;;;;;5082544;28;20035;-37
2021/10/15 14:41:45;;;;;;;4.27;3.57;;;;;;;;;;5073682;28;20051;-36
2021/10/15 14:44:10;;;;;;;5.45;3.33;;;;;;;;;;5090200;28;20020;-36
2021/10/15 14:46:37;;;;;;;4.30;3.20;;;;;;;;;;5090572;28;20027;-37
2021/10/15 14:49:03;;;;;;;7.93;3.40;;;;;;;;;;5091458;28;20169;-37
2021/10/15 14:51:28;;;;;;;5.77;3.13;;;;;;;;;;5073130;28;20127;-35
2021/10/15 14:53:54;;;;;;;5.20;3.23;;;;;;;;;;5090628;28;20024;-37
2021/10/15 14:56:19;;;;;;;4.73;3.13;;;;;;;;;;5090740;28;20121;-36
2021/10/15 14:58:44;;;;;;;5.43;3.13;;;;;;;;;;5091445;28;20024;-36
2021/10/15 15:01:10;;;;;;;5.47;3.30;;;;;;;;;;5073365;28;20400;-36